createdAt,value
2018-12-18T00:00:12.466Z,9.36
2018-12-18T00:02:45.089Z,9.40
2018-12-18T00:05:21.103Z,9.43
2018-12-18T00:07:49.808Z,9.38
2018-12-18T00:10:18.550Z,9.31
2018-12-18T00:12:47.247Z,9.22
2018-12-18T00:15:15.960Z,9.07
2018-12-18T00:17:44.667Z,9.18
2018-12-18T00:20:13.379Z,9.29
2018-12-18T00:22:42.092Z,9.23
2018-12-18T00:25:11.705Z,9.31
2018-12-18T00:27:40.402Z,9.38
2018-12-18T00:30:09.091Z,9.29
2018-12-18T00:32:37.814Z,9.12
2018-12-18T00:35:06.594Z,9.21
2018-12-18T00:37:35.238Z,9.07
2018-12-18T00:40:04.419Z,9.08
2018-12-18T00:42:33.119Z,9.16
2018-12-18T00:45:01.827Z,9.06
2018-12-18T00:47:30.520Z,9.10
2018-12-18T00:49:59.230Z,9.10
2018-12-18T00:52:27.912Z,8.89
2018-12-18T00:54:56.603Z,8.93
2018-12-18T00:57:25.306Z,8.95
2018-12-18T00:59:53.938Z,8.89
2018-12-18T01:02:22.670Z,8.78
2018-12-18T01:04:51.518Z,8.85
2018-12-18T01:07:20.270Z,8.95
2018-12-18T01:09:48.970Z,9.03
2018-12-18T01:12:17.751Z,9.06
2018-12-18T01:14:46.449Z,9.14
2018-12-18T01:17:15.198Z,9.07
2018-12-18T01:19:43.889Z,9.23
2018-12-18T01:22:12.598Z,9.26
2018-12-18T01:24:41.299Z,9.33
2018-12-18T01:27:10.002Z,9.31
2018-12-18T01:29:38.710Z,9.32
2018-12-18T01:32:07.339Z,9.37
2018-12-18T01:34:35.987Z,9.28
2018-12-18T01:37:04.692Z,9.15
2018-12-18T01:39:33.375Z,9.19
2018-12-18T01:42:02.020Z,9.11
2018-12-18T01:44:31.638Z,9.19
2018-12-18T01:47:00.352Z,9.22
2018-12-18T01:49:29.010Z,9.25
2018-12-18T01:51:57.729Z,9.17
2018-12-18T01:54:26.460Z,9.11
2018-12-18T01:56:55.151Z,9.07
2018-12-18T01:59:23.857Z,9.15
2018-12-18T02:01:52.574Z,9.16
2018-12-18T02:04:21.235Z,9.16
2018-12-18T02:06:49.923Z,9.13
2018-12-18T02:09:18.681Z,9.14
2018-12-18T02:11:47.388Z,9.29
2018-12-18T02:14:16.051Z,9.33
2018-12-18T02:16:44.755Z,9.36
2018-12-18T02:19:13.464Z,9.37
2018-12-18T02:21:42.154Z,9.40
2018-12-18T02:24:10.808Z,9.41
2018-12-18T02:26:39.550Z,9.55
2018-12-18T02:29:08.214Z,9.55
2018-12-18T02:31:36.851Z,9.53
2018-12-18T02:34:05.602Z,9.51
2018-12-18T02:36:34.297Z,9.56
2018-12-18T02:39:03.166Z,9.50
2018-12-18T02:41:32.896Z,9.48
2018-12-18T02:44:01.599Z,9.55
2018-12-18T02:46:30.299Z,9.53
2018-12-18T02:48:59.018Z,9.57
2018-12-18T02:51:27.678Z,9.68
2018-12-18T02:53:56.466Z,9.74
2018-12-18T02:56:25.159Z,9.68
2018-12-18T02:58:53.871Z,9.69
2018-12-18T03:01:22.579Z,9.74
2018-12-18T03:03:51.273Z,9.68
2018-12-18T03:06:19.966Z,9.63
2018-12-18T03:08:48.672Z,9.71
2018-12-18T03:11:20.459Z,9.72
2018-12-18T03:13:49.423Z,9.74
2018-12-18T03:16:18.098Z,9.75
2018-12-18T03:18:47.839Z,9.81
2018-12-18T03:21:17.047Z,9.84
2018-12-18T03:23:45.808Z,9.82
2018-12-18T03:26:14.570Z,9.83
2018-12-18T03:28:43.227Z,9.80
2018-12-18T03:31:11.990Z,9.83
2018-12-18T03:33:40.733Z,9.89
2018-12-18T03:36:09.499Z,9.83
2018-12-18T03:38:38.198Z,9.81
2018-12-18T03:41:06.898Z,9.85
2018-12-18T03:43:35.601Z,9.77
2018-12-18T03:46:04.347Z,9.83
2018-12-18T03:48:33.022Z,9.87
2018-12-18T03:51:01.723Z,9.80
2018-12-18T03:53:30.406Z,9.82
2018-12-18T03:55:59.151Z,9.84
2018-12-18T03:58:27.857Z,9.71
2018-12-18T04:00:56.591Z,9.67
2018-12-18T04:03:25.239Z,9.65
2018-12-18T04:05:54.007Z,9.68
2018-12-18T04:08:22.641Z,9.64
2018-12-18T04:10:51.402Z,9.61
2018-12-18T04:13:20.103Z,9.58
2018-12-18T04:15:48.803Z,9.63
2018-12-18T04:18:17.500Z,9.58
2018-12-18T04:20:46.259Z,9.59
2018-12-18T04:23:15.059Z,9.68
2018-12-18T04:25:43.760Z,9.72
2018-12-18T04:28:12.489Z,9.78
2018-12-18T04:30:41.111Z,9.79
2018-12-18T04:33:09.809Z,9.77
2018-12-18T04:35:40.480Z,9.71
2018-12-18T04:38:09.219Z,9.75
2018-12-18T04:40:37.937Z,9.73
2018-12-18T04:43:06.645Z,9.77
2018-12-18T04:45:35.561Z,9.75
2018-12-18T04:48:04.278Z,9.68
2018-12-18T04:50:33.019Z,9.68
2018-12-18T04:53:01.714Z,9.67
2018-12-18T04:55:30.458Z,9.70
2018-12-18T04:57:59.195Z,9.79
2018-12-18T05:00:27.894Z,9.76
2018-12-18T05:02:56.615Z,9.76
2018-12-18T05:05:25.342Z,9.79
2018-12-18T05:07:54.059Z,9.86
2018-12-18T05:10:22.813Z,9.86
2018-12-18T05:12:51.546Z,9.81
2018-12-18T05:15:20.266Z,9.69
2018-12-18T05:17:48.966Z,9.68
2018-12-18T05:20:17.995Z,9.65
2018-12-18T05:22:46.780Z,9.67
2018-12-18T05:25:15.479Z,9.68
2018-12-18T05:27:44.214Z,9.68
2018-12-18T05:30:12.946Z,9.54
2018-12-18T05:32:41.611Z,9.45
2018-12-18T05:35:10.339Z,9.43
2018-12-18T05:37:39.086Z,9.33
2018-12-18T05:40:07.879Z,9.34
2018-12-18T05:42:37.410Z,9.32
2018-12-18T05:45:06.155Z,9.31
2018-12-18T05:47:34.870Z,9.36
2018-12-18T05:50:03.611Z,9.37
2018-12-18T05:52:33.279Z,9.40
2018-12-18T05:55:01.998Z,9.47
2018-12-18T05:57:30.782Z,9.49
2018-12-18T05:59:59.511Z,9.52
2018-12-18T06:02:28.270Z,9.54
2018-12-18T06:05:03.177Z,9.49
2018-12-18T06:07:29.438Z,9.45
2018-12-18T06:09:58.182Z,9.33
2018-12-18T06:12:26.910Z,9.37
2018-12-18T06:14:55.680Z,9.37
2018-12-18T06:17:24.422Z,9.41
2018-12-18T06:19:53.064Z,9.41
2018-12-18T06:22:21.784Z,9.45
2018-12-18T06:24:50.505Z,9.46
2018-12-18T06:27:19.263Z,9.39
2018-12-18T06:29:48.892Z,9.45
2018-12-18T06:32:17.629Z,9.49
2018-12-18T06:34:46.363Z,9.54
2018-12-18T06:37:15.082Z,9.54
2018-12-18T06:39:43.890Z,9.66
2018-12-18T06:42:12.643Z,9.57
2018-12-18T06:47:21.938Z,9.38
2018-12-18T06:49:50.709Z,9.31
2018-12-18T06:52:19.453Z,9.32
2018-12-18T06:54:48.198Z,9.43
2018-12-18T06:57:16.860Z,9.35
2018-12-18T06:59:45.609Z,9.21
2018-12-18T07:02:14.341Z,9.22
2018-12-18T07:04:43.132Z,9.17
2018-12-18T07:07:12.934Z,9.14
2018-12-18T07:09:41.709Z,9.10
2018-12-18T07:12:10.470Z,9.08
2018-12-18T07:14:39.191Z,9.05
2018-12-18T07:17:07.984Z,9.11
2018-12-18T07:19:36.667Z,9.14
2018-12-18T07:22:05.405Z,9.23
2018-12-18T07:24:34.074Z,9.23
2018-12-18T07:27:02.831Z,9.33
2018-12-18T07:29:31.594Z,9.41
2018-12-18T07:32:00.386Z,9.36
2018-12-18T07:34:33.400Z,9.36
2018-12-18T07:36:59.993Z,9.34
2018-12-18T07:39:28.736Z,9.40
2018-12-18T07:41:57.503Z,9.36
2018-12-18T07:44:26.294Z,9.33
2018-12-18T07:46:55.026Z,9.23
2018-12-18T07:49:23.759Z,9.17
2018-12-18T07:51:52.506Z,9.21
2018-12-18T07:54:21.798Z,9.20
2018-12-18T07:56:50.474Z,9.13
2018-12-18T07:59:19.290Z,9.15
2018-12-18T08:01:48.055Z,9.14
2018-12-18T08:04:16.799Z,9.12
2018-12-18T08:06:45.524Z,9.01
2018-12-18T08:09:14.396Z,8.95
2018-12-18T08:11:43.183Z,8.91
2018-12-18T08:14:11.868Z,8.85
2018-12-18T08:16:40.673Z,8.92
2018-12-18T08:19:09.518Z,8.94
2018-12-18T08:21:38.358Z,8.88
2018-12-18T08:24:07.182Z,8.94
2018-12-18T08:26:35.944Z,8.91
2018-12-18T08:29:04.778Z,8.90
2018-12-18T08:31:33.520Z,8.77
2018-12-18T08:34:02.390Z,8.87
2018-12-18T08:36:31.154Z,8.99
2018-12-18T08:39:00.097Z,8.98
2018-12-18T08:41:28.868Z,8.95
2018-12-18T08:43:57.655Z,9.05
2018-12-18T08:46:26.519Z,9.14
2018-12-18T08:48:55.351Z,9.19
2018-12-18T08:51:24.158Z,9.21
2018-12-18T08:53:52.842Z,9.21
2018-12-18T08:56:21.606Z,9.24
2018-12-18T08:58:50.395Z,9.37
2018-12-18T09:01:19.227Z,9.41
2018-12-18T09:03:48.008Z,9.42
2018-12-18T09:06:16.754Z,9.35
2018-12-18T09:08:45.532Z,9.32
2018-12-18T09:11:14.495Z,9.46
2018-12-18T09:13:43.228Z,9.60
2018-12-18T09:16:17.520Z,9.65
2018-12-18T09:18:46.251Z,9.71
2018-12-18T09:21:14.977Z,9.83
2018-12-18T09:23:43.726Z,9.88
2018-12-18T09:26:12.463Z,9.92
2018-12-18T09:28:41.216Z,9.99
2018-12-18T09:31:09.886Z,10.02
2018-12-18T09:33:38.655Z,10.05
2018-12-18T09:36:07.459Z,10.17
2018-12-18T09:38:41.728Z,10.22
2018-12-18T09:41:25.275Z,10.15
2018-12-18T09:43:58.853Z,9.92
2018-12-18T09:46:27.699Z,10.00
2018-12-18T09:48:56.379Z,10.04
2018-12-18T09:51:25.138Z,10.12
2018-12-18T09:53:53.838Z,10.19
2018-12-18T09:56:22.586Z,10.20
2018-12-18T09:58:51.306Z,10.30
2018-12-18T10:01:19.991Z,10.30
2018-12-18T10:03:48.732Z,10.22
2018-12-18T10:06:17.536Z,10.31
2018-12-18T10:08:46.319Z,10.40
2018-12-18T10:11:14.995Z,10.48
2018-12-18T10:13:43.741Z,10.58
2018-12-18T10:16:12.470Z,10.56
2018-12-18T10:18:41.214Z,10.70
2018-12-18T10:21:10.088Z,10.68
2018-12-18T10:23:38.823Z,10.39
2018-12-18T10:26:07.620Z,10.37
2018-12-18T10:28:36.453Z,10.51
2018-12-18T10:31:05.231Z,10.53
2018-12-18T10:33:33.990Z,10.50
2018-12-18T10:36:04.333Z,10.42
2018-12-18T10:38:33.018Z,10.53
2018-12-18T10:41:01.750Z,10.52
2018-12-18T10:43:30.473Z,10.57
2018-12-18T10:45:59.248Z,10.53
2018-12-18T10:48:27.951Z,10.42
2018-12-18T10:50:56.696Z,10.37
2018-12-18T10:53:25.515Z,10.26
2018-12-18T10:55:54.326Z,10.37
2018-12-18T10:58:24.114Z,10.45
2018-12-18T11:00:58.534Z,10.50
2018-12-18T11:03:27.216Z,10.62
2018-12-18T11:05:56.000Z,10.59
2018-12-18T11:08:24.690Z,10.74
2018-12-18T11:10:53.463Z,10.76
2018-12-18T11:13:22.183Z,10.81
2018-12-18T11:15:50.932Z,10.76
2018-12-18T11:18:19.620Z,10.78
2018-12-18T11:20:48.419Z,10.89
2018-12-18T11:23:17.170Z,10.87
2018-12-18T11:25:45.910Z,10.70
2018-12-18T11:28:14.651Z,10.76
2018-12-18T11:30:43.393Z,10.68
2018-12-18T11:33:12.187Z,10.56
2018-12-18T11:35:41.003Z,10.58
2018-12-18T11:38:09.683Z,10.65
2018-12-18T11:40:38.428Z,10.51
2018-12-18T11:43:07.163Z,10.64
2018-12-18T11:45:35.900Z,10.58
2018-12-18T11:48:04.714Z,10.60
2018-12-18T11:50:33.443Z,10.30
2018-12-18T11:53:02.186Z,10.44
2018-12-18T11:55:31.034Z,10.50
2018-12-18T11:57:59.776Z,10.43
2018-12-18T12:00:28.447Z,10.61
2018-12-18T12:02:57.164Z,10.66
2018-12-18T12:05:27.848Z,10.65
2018-12-18T12:07:56.587Z,10.56
2018-12-18T12:10:25.275Z,10.40
2018-12-18T12:12:53.954Z,10.33
2018-12-18T12:15:22.675Z,10.35
2018-12-18T12:17:51.591Z,10.48
2018-12-18T12:20:20.266Z,10.46
2018-12-18T12:22:49.019Z,10.35
2018-12-18T12:25:17.733Z,10.29
2018-12-18T12:27:52.006Z,10.37
2018-12-18T12:30:20.686Z,10.25
2018-12-18T12:32:49.418Z,10.28
2018-12-18T12:35:18.175Z,10.36
2018-12-18T12:37:46.859Z,10.36
2018-12-18T12:40:15.534Z,10.27
2018-12-18T12:42:44.234Z,10.33
2018-12-18T12:45:12.984Z,10.30
2018-12-18T12:47:43.675Z,10.36
2018-12-18T12:50:12.402Z,10.34
2018-12-18T12:52:41.167Z,10.27
2018-12-18T12:55:11.027Z,10.39
2018-12-18T12:57:39.716Z,10.29
2018-12-18T13:00:08.539Z,10.37
2018-12-18T13:02:37.359Z,10.29
2018-12-18T13:05:06.211Z,10.09
2018-12-18T13:07:35.000Z,10.11
2018-12-18T13:10:04.083Z,10.16
2018-12-18T13:12:32.875Z,10.20
2018-12-18T13:15:01.603Z,10.22
2018-12-18T13:17:30.327Z,10.23
2018-12-18T13:19:59.070Z,10.26
2018-12-18T13:22:27.850Z,10.66
2018-12-18T13:24:56.562Z,11.57
2018-12-18T13:27:25.315Z,11.47
2018-12-18T13:29:54.283Z,11.13
2018-12-18T13:32:23.034Z,11.02
2018-12-18T13:34:52.039Z,10.68
2018-12-18T13:37:20.763Z,10.32
2018-12-18T13:39:49.571Z,10.42
2018-12-18T13:42:18.296Z,10.43
2018-12-18T13:44:47.005Z,10.14
2018-12-18T13:47:15.779Z,10.18
2018-12-18T13:49:44.567Z,10.06
2018-12-18T13:52:13.283Z,9.82
2018-12-18T13:54:42.027Z,9.69
2018-12-18T13:57:10.790Z,9.59
2018-12-18T13:59:39.519Z,9.45
2018-12-18T14:02:08.292Z,9.34
2018-12-18T14:04:36.990Z,9.33
2018-12-18T14:07:05.929Z,9.27
2018-12-18T14:09:34.938Z,9.41
2018-12-18T14:12:03.659Z,9.04
2018-12-18T14:14:32.397Z,9.20
2018-12-18T14:17:02.211Z,9.24
2018-12-18T14:19:30.926Z,9.04
2018-12-18T14:21:59.655Z,9.18
2018-12-18T14:24:28.455Z,9.25
2018-12-18T14:26:57.216Z,9.40
2018-12-18T14:29:25.995Z,9.50
2018-12-18T14:31:54.676Z,9.21
2018-12-18T14:34:23.415Z,9.28
2018-12-18T14:36:56.254Z,9.22
2018-12-18T14:39:22.827Z,9.18
2018-12-18T14:41:51.534Z,8.98
2018-12-18T14:44:20.203Z,8.96
2018-12-18T14:46:48.878Z,8.85
2018-12-18T14:49:17.546Z,9.00
2018-12-18T14:51:46.215Z,9.04
2018-12-18T14:54:16.076Z,8.93
2018-12-18T14:56:44.820Z,8.84
2018-12-18T14:59:13.558Z,8.84
2018-12-18T15:01:42.294Z,8.75
2018-12-18T15:04:10.986Z,8.90
2018-12-18T15:06:39.707Z,8.89
2018-12-18T15:09:08.438Z,8.92
2018-12-18T15:11:37.138Z,8.78
2018-12-18T15:14:05.859Z,8.96
2018-12-18T15:16:35.008Z,8.93
2018-12-18T15:19:03.758Z,8.98
2018-12-18T15:21:32.489Z,8.85
2018-12-18T15:24:01.195Z,8.84
2018-12-18T15:26:29.906Z,8.74
2018-12-18T15:28:58.655Z,8.58
2018-12-18T15:31:27.378Z,8.58
2018-12-18T15:33:56.122Z,8.55
2018-12-18T15:36:24.846Z,8.30
2018-12-18T15:38:54.251Z,8.20
2018-12-18T15:41:22.989Z,8.29
2018-12-18T15:43:52.790Z,8.29
2018-12-18T15:46:21.478Z,8.39
2018-12-18T15:48:50.141Z,8.36
2018-12-18T15:51:18.898Z,8.29
2018-12-18T15:53:47.574Z,8.28
2018-12-18T15:56:16.370Z,8.23
2018-12-18T15:58:45.054Z,8.37
2018-12-18T16:01:13.864Z,8.15
2018-12-18T16:03:42.566Z,8.27
2018-12-18T16:06:12.430Z,8.35
2018-12-18T16:08:41.111Z,8.38
2018-12-18T16:11:09.841Z,8.34
2018-12-18T16:13:38.522Z,8.40
2018-12-18T16:16:07.421Z,8.42
2018-12-18T16:18:36.206Z,8.35
2018-12-18T16:21:04.926Z,8.32
2018-12-18T16:23:33.689Z,8.37
2018-12-18T16:26:02.354Z,8.37
2018-12-18T16:28:31.070Z,8.26
2018-12-18T16:30:59.828Z,8.24
2018-12-18T16:33:28.539Z,8.11
2018-12-18T16:35:57.238Z,8.19
2018-12-18T16:38:25.975Z,8.14
2018-12-18T16:40:54.707Z,8.01
2018-12-18T16:43:23.439Z,7.96
2018-12-18T16:45:52.623Z,8.02
2018-12-18T16:48:21.376Z,8.06
2018-12-18T16:50:50.095Z,8.16
2018-12-18T16:53:18.759Z,8.09
2018-12-18T16:55:47.462Z,8.33
2018-12-18T16:58:16.256Z,8.27
2018-12-18T17:00:44.934Z,8.19
2018-12-18T17:03:13.606Z,8.30
2018-12-18T17:05:42.262Z,8.23
2018-12-18T17:08:11.895Z,8.25
2018-12-18T17:10:40.618Z,8.22
2018-12-18T17:13:10.355Z,8.34
2018-12-18T17:15:39.022Z,8.37
2018-12-18T17:18:07.750Z,8.15
2018-12-18T17:20:36.478Z,8.18
2018-12-18T17:23:05.263Z,8.37
2018-12-18T17:25:33.936Z,8.42
2018-12-18T17:28:02.615Z,8.31
2018-12-18T17:30:31.281Z,8.28
2018-12-18T17:32:59.990Z,8.22
2018-12-18T17:35:28.744Z,8.32
2018-12-18T17:37:57.490Z,8.31
2018-12-18T17:40:26.227Z,8.31
2018-12-18T17:42:54.957Z,8.32
2018-12-18T17:45:23.678Z,8.46
2018-12-18T17:47:53.422Z,8.36
2018-12-18T17:50:22.151Z,8.71
2018-12-18T17:52:50.943Z,8.45
2018-12-18T17:55:19.711Z,8.31
2018-12-18T17:57:48.487Z,8.27
2018-12-18T18:00:17.163Z,8.23
2018-12-18T18:02:45.874Z,8.05
2018-12-18T18:05:14.615Z,8.22
2018-12-18T18:07:43.414Z,8.08
2018-12-18T18:10:12.188Z,8.04
2018-12-18T18:12:40.914Z,7.93
2018-12-18T18:15:11.048Z,7.88
2018-12-18T18:17:39.743Z,7.87
2018-12-18T18:20:08.542Z,8.04
2018-12-18T18:22:37.620Z,7.79
2018-12-18T18:25:06.418Z,7.80
2018-12-18T18:27:35.223Z,7.86
2018-12-18T18:30:05.623Z,7.79
2018-12-18T18:32:35.344Z,7.71
2018-12-18T18:35:04.610Z,7.93
2018-12-18T18:37:33.390Z,7.96
2018-12-18T18:40:02.207Z,7.84
2018-12-18T18:42:30.891Z,7.82
2018-12-18T18:44:59.583Z,7.67
2018-12-18T18:47:28.426Z,7.73
2018-12-18T18:49:57.207Z,7.70
2018-12-18T18:52:25.958Z,7.41
2018-12-18T18:54:54.695Z,7.42
2018-12-18T18:57:23.427Z,7.47
2018-12-18T18:59:52.167Z,7.58
2018-12-18T19:02:21.353Z,7.52
2018-12-18T19:04:50.072Z,7.32
2018-12-18T19:07:18.804Z,7.43
2018-12-18T19:09:47.543Z,7.56
2018-12-18T19:12:16.355Z,7.50
2018-12-18T19:14:45.110Z,7.41
2018-12-18T19:17:13.822Z,7.42
2018-12-18T19:19:42.600Z,7.51
2018-12-18T19:22:11.412Z,7.24
2018-12-18T19:24:40.911Z,7.10
2018-12-18T19:27:09.582Z,7.36
2018-12-18T19:29:38.387Z,7.43
2018-12-18T19:32:07.154Z,7.28
2018-12-18T19:34:35.843Z,7.53
2018-12-18T19:37:04.742Z,7.53
2018-12-18T19:39:33.585Z,7.44
2018-12-18T19:42:02.255Z,7.34
2018-12-18T19:44:30.946Z,7.51
2018-12-18T19:47:00.528Z,7.52
2018-12-18T19:49:29.230Z,7.53
2018-12-18T19:51:58.011Z,7.60
2018-12-18T19:54:26.696Z,7.73
2018-12-18T19:56:56.487Z,7.54
2018-12-18T19:59:25.231Z,7.67
2018-12-18T20:01:54.078Z,7.70
2018-12-18T20:04:22.834Z,7.69
2018-12-18T20:06:51.554Z,7.72
2018-12-18T20:09:20.317Z,7.75
2018-12-18T20:11:49.046Z,7.84
2018-12-18T20:14:17.814Z,7.75
2018-12-18T20:16:46.607Z,7.87
2018-12-18T20:19:15.432Z,7.89
2018-12-18T20:21:44.119Z,7.97
2018-12-18T20:24:12.835Z,7.78
2018-12-18T20:26:41.527Z,7.98
2018-12-18T20:29:10.344Z,8.06
2018-12-18T20:31:39.286Z,8.08
2018-12-18T20:34:08.036Z,8.04
2018-12-18T20:36:37.071Z,8.11
2018-12-18T20:39:07.986Z,8.06
2018-12-18T20:41:36.804Z,8.06
2018-12-18T20:44:05.538Z,8.02
2018-12-18T20:46:34.203Z,8.10
2018-12-18T20:49:02.937Z,8.18
2018-12-18T20:51:31.702Z,8.24
2018-12-18T20:54:00.458Z,8.30
2018-12-18T20:56:29.231Z,8.34
2018-12-18T20:58:57.907Z,8.34
2018-12-18T21:01:26.766Z,8.34
2018-12-18T21:03:55.531Z,8.15
2018-12-18T21:06:24.367Z,8.30
2018-12-18T21:08:53.186Z,8.38
2018-12-18T21:11:22.048Z,8.44
2018-12-18T21:13:50.883Z,8.36
2018-12-18T21:16:19.702Z,8.30
2018-12-18T21:18:48.543Z,8.11
2018-12-18T21:21:17.502Z,8.18
2018-12-18T21:23:46.343Z,8.19
2018-12-18T21:26:15.203Z,8.39
2018-12-18T21:28:44.023Z,8.42
2018-12-18T21:31:12.939Z,8.44
2018-12-18T21:33:41.844Z,8.46
2018-12-18T21:36:10.862Z,8.40
2018-12-18T21:38:39.902Z,8.39
2018-12-18T21:41:08.807Z,8.44
2018-12-18T21:43:37.666Z,8.41
2018-12-18T21:46:06.488Z,8.31
2018-12-18T21:48:35.610Z,8.36
2018-12-18T21:51:04.622Z,8.30
2018-12-18T21:53:33.450Z,8.37
2018-12-18T21:56:02.316Z,8.37
2018-12-18T21:58:31.248Z,8.34
2018-12-18T22:01:01.175Z,8.42
2018-12-18T22:03:31.055Z,8.47
2018-12-18T22:05:59.890Z,8.51
2018-12-18T22:08:28.737Z,8.59
2018-12-18T22:10:57.700Z,8.40
2018-12-18T22:13:26.558Z,8.40
2018-12-18T22:15:55.377Z,8.25
2018-12-18T22:18:24.190Z,8.24
2018-12-18T22:20:53.095Z,8.16
2018-12-18T22:23:21.943Z,8.13
2018-12-18T22:25:50.687Z,8.10
2018-12-18T22:28:19.350Z,8.13
2018-12-18T22:30:48.062Z,8.12
2018-12-18T22:33:16.742Z,8.03
2018-12-18T22:35:45.403Z,8.04
2018-12-18T22:38:14.074Z,7.99
2018-12-18T22:40:42.788Z,7.95
2018-12-18T22:43:11.502Z,7.95
2018-12-18T22:45:40.293Z,8.07
2018-12-18T22:48:09.010Z,8.03
2018-12-18T22:50:37.686Z,8.07
2018-12-18T22:53:06.402Z,8.15
2018-12-18T22:55:35.229Z,7.70
2018-12-18T22:58:03.987Z,7.88
2018-12-18T23:00:39.055Z,8.02
2018-12-18T23:03:09.720Z,8.08
2018-12-18T23:05:38.442Z,7.96
2018-12-18T23:08:07.163Z,7.99
2018-12-18T23:10:35.823Z,8.03
2018-12-18T23:13:04.544Z,8.10
2018-12-18T23:15:33.315Z,8.13
2018-12-18T23:18:01.971Z,8.16
2018-12-18T23:20:30.666Z,8.06
2018-12-18T23:22:59.403Z,7.95
2018-12-18T23:25:28.199Z,8.11
2018-12-18T23:27:56.939Z,8.07
2018-12-18T23:30:26.707Z,8.10
2018-12-18T23:32:56.519Z,8.21
2018-12-18T23:35:25.276Z,8.11
2018-12-18T23:37:54.090Z,8.13
2018-12-18T23:40:22.885Z,8.06
2018-12-18T23:42:51.590Z,8.03
2018-12-18T23:45:20.550Z,8.12
2018-12-18T23:47:49.194Z,8.13
2018-12-18T23:50:17.858Z,8.17
2018-12-18T23:52:47.487Z,7.85
2018-12-18T23:55:16.198Z,7.87
2018-12-18T23:57:44.919Z,7.91
